sensor_id;sensor_type;location;lat;lon;timestamp;P1;durP1;ratioP1;P2;durP2;ratioP2
13672;SDS011;6909;52.202;9.876;2023-06-10T00:01:33;1.13;;;1.03;;
13672;SDS011;6909;52.202;9.876;2023-06-10T00:04:03;1.60;;;1.40;;
13672;SDS011;6909;52.202;9.876;2023-06-10T00:06:30;2.07;;;1.67;;
13672;SDS011;6909;52.202;9.876;2023-06-10T00:09:00;1.10;;;0.97;;
13672;SDS011;6909;52.202;9.876;2023-06-10T00:11:29;2.70;;;2.40;;
13672;SDS011;6909;52.202;9.876;2023-06-10T00:13:56;1.30;;;1.20;;
13672;SDS011;6909;52.202;9.876;2023-06-10T00:16:23;2.47;;;1.63;;
13672;SDS011;6909;52.202;9.876;2023-06-10T00:18:50;1.50;;;1.40;;
13672;SDS011;6909;52.202;9.876;2023-06-10T00:21:18;2.53;;;1.77;;
13672;SDS011;6909;52.202;9.876;2023-06-10T00:23:45;1.20;;;1.10;;
13672;SDS011;6909;52.202;9.876;2023-06-10T00:26:11;1.37;;;1.23;;
13672;SDS011;6909;52.202;9.876;2023-06-10T00:28:38;1.20;;;1.00;;
13672;SDS011;6909;52.202;9.876;2023-06-10T00:31:05;1.57;;;0.80;;
13672;SDS011;6909;52.202;9.876;2023-06-10T00:33:31;1.30;;;1.20;;
13672;SDS011;6909;52.202;9.876;2023-06-10T00:35:58;1.33;;;1.17;;
13672;SDS011;6909;52.202;9.876;2023-06-10T00:38:26;2.30;;;2.03;;
13672;SDS011;6909;52.202;9.876;2023-06-10T00:40:52;4.13;;;2.07;;
13672;SDS011;6909;52.202;9.876;2023-06-10T00:43:19;1.63;;;1.40;;
13672;SDS011;6909;52.202;9.876;2023-06-10T00:45:46;1.17;;;0.93;;
13672;SDS011;6909;52.202;9.876;2023-06-10T00:48:12;2.77;;;1.20;;
13672;SDS011;6909;52.202;9.876;2023-06-10T00:50:39;1.77;;;1.30;;
13672;SDS011;6909;52.202;9.876;2023-06-10T00:53:06;2.00;;;1.50;;
13672;SDS011;6909;52.202;9.876;2023-06-10T00:55:35;3.03;;;1.73;;
13672;SDS011;6909;52.202;9.876;2023-06-10T00:58:02;2.70;;;1.13;;
13672;SDS011;6909;52.202;9.876;2023-06-10T01:00:29;1.90;;;1.47;;
13672;SDS011;6909;52.202;9.876;2023-06-10T01:02:56;2.07;;;1.77;;
13672;SDS011;6909;52.202;9.876;2023-06-10T01:05:23;1.17;;;1.07;;
13672;SDS011;6909;52.202;9.876;2023-06-10T01:07:53;2.10;;;1.43;;
13672;SDS011;6909;52.202;9.876;2023-06-10T01:10:28;2.67;;;2.10;;
13672;SDS011;6909;52.202;9.876;2023-06-10T01:13:02;1.50;;;1.10;;
13672;SDS011;6909;52.202;9.876;2023-06-10T01:15:29;1.63;;;1.33;;
13672;SDS011;6909;52.202;9.876;2023-06-10T01:17:57;1.37;;;1.00;;
13672;SDS011;6909;52.202;9.876;2023-06-10T01:20:25;3.47;;;1.30;;
13672;SDS011;6909;52.202;9.876;2023-06-10T01:22:54;2.37;;;0.93;;
13672;SDS011;6909;52.202;9.876;2023-06-10T01:25:23;1.43;;;1.30;;
13672;SDS011;6909;52.202;9.876;2023-06-10T01:27:53;3.63;;;2.37;;
13672;SDS011;6909;52.202;9.876;2023-06-10T01:30:25;5.43;;;2.20;;
13672;SDS011;6909;52.202;9.876;2023-06-10T01:32:58;3.07;;;1.60;;
13672;SDS011;6909;52.202;9.876;2023-06-10T01:35:27;2.93;;;1.70;;
13672;SDS011;6909;52.202;9.876;2023-06-10T01:37:58;1.90;;;1.20;;
13672;SDS011;6909;52.202;9.876;2023-06-10T01:40:26;1.13;;;0.97;;
13672;SDS011;6909;52.202;9.876;2023-06-10T01:42:53;1.50;;;1.13;;
13672;SDS011;6909;52.202;9.876;2023-06-10T01:45:20;2.83;;;0.83;;
13672;SDS011;6909;52.202;9.876;2023-06-10T01:47:46;1.13;;;0.90;;
13672;SDS011;6909;52.202;9.876;2023-06-10T01:50:13;1.77;;;1.20;;
13672;SDS011;6909;52.202;9.876;2023-06-10T01:52:41;1.27;;;1.17;;
13672;SDS011;6909;52.202;9.876;2023-06-10T01:55:09;1.90;;;1.60;;
13672;SDS011;6909;52.202;9.876;2023-06-10T01:57:36;1.33;;;1.20;;
13672;SDS011;6909;52.202;9.876;2023-06-10T02:00:03;1.27;;;1.07;;
13672;SDS011;6909;52.202;9.876;2023-06-10T02:02:30;1.40;;;1.30;;
13672;SDS011;6909;52.202;9.876;2023-06-10T02:04:57;1.60;;;0.90;;
13672;SDS011;6909;52.202;9.876;2023-06-10T02:07:23;1.30;;;1.20;;
13672;SDS011;6909;52.202;9.876;2023-06-10T02:09:50;1.00;;;1.00;;
13672;SDS011;6909;52.202;9.876;2023-06-10T02:12:18;0.90;;;0.90;;
13672;SDS011;6909;52.202;9.876;2023-06-10T02:14:44;1.37;;;1.27;;
13672;SDS011;6909;52.202;9.876;2023-06-10T02:17:11;1.20;;;1.10;;
13672;SDS011;6909;52.202;9.876;2023-06-10T02:19:39;1.50;;;1.40;;
13672;SDS011;6909;52.202;9.876;2023-06-10T02:22:07;1.70;;;0.90;;
13672;SDS011;6909;52.202;9.876;2023-06-10T02:24:35;1.07;;;0.73;;
13672;SDS011;6909;52.202;9.876;2023-06-10T02:27:03;1.43;;;1.13;;
13672;SDS011;6909;52.202;9.876;2023-06-10T02:29:33;1.23;;;1.13;;
13672;SDS011;6909;52.202;9.876;2023-06-10T02:32:00;2.90;;;1.10;;
13672;SDS011;6909;52.202;9.876;2023-06-10T02:34:28;2.07;;;1.03;;
13672;SDS011;6909;52.202;9.876;2023-06-10T02:36:54;1.40;;;1.30;;
13672;SDS011;6909;52.202;9.876;2023-06-10T02:39:21;2.40;;;1.20;;
13672;SDS011;6909;52.202;9.876;2023-06-10T02:41:48;1.40;;;1.17;;
13672;SDS011;6909;52.202;9.876;2023-06-10T02:44:15;0.93;;;0.93;;
13672;SDS011;6909;52.202;9.876;2023-06-10T02:46:44;2.20;;;1.40;;
13672;SDS011;6909;52.202;9.876;2023-06-10T02:49:11;1.40;;;1.30;;
13672;SDS011;6909;52.202;9.876;2023-06-10T02:51:38;1.53;;;1.33;;
13672;SDS011;6909;52.202;9.876;2023-06-10T02:54:05;1.37;;;1.13;;
13672;SDS011;6909;52.202;9.876;2023-06-10T02:56:31;4.70;;;1.63;;
13672;SDS011;6909;52.202;9.876;2023-06-10T02:58:58;1.37;;;1.10;;
13672;SDS011;6909;52.202;9.876;2023-06-10T03:01:25;1.17;;;1.07;;
13672;SDS011;6909;52.202;9.876;2023-06-10T03:03:53;1.40;;;1.30;;
13672;SDS011;6909;52.202;9.876;2023-06-10T03:06:21;2.00;;;1.40;;
13672;SDS011;6909;52.202;9.876;2023-06-10T03:08:49;1.57;;;1.13;;
13672;SDS011;6909;52.202;9.876;2023-06-10T03:11:16;1.10;;;1.00;;
13672;SDS011;6909;52.202;9.876;2023-06-10T03:13:44;1.20;;;1.10;;
13672;SDS011;6909;52.202;9.876;2023-06-10T03:16:11;1.77;;;1.10;;
13672;SDS011;6909;52.202;9.876;2023-06-10T03:18:38;2.83;;;1.90;;
13672;SDS011;6909;52.202;9.876;2023-06-10T03:21:06;1.30;;;1.20;;
13672;SDS011;6909;52.202;9.876;2023-06-10T03:23:33;1.43;;;1.13;;
13672;SDS011;6909;52.202;9.876;2023-06-10T03:26:00;1.07;;;0.90;;
13672;SDS011;6909;52.202;9.876;2023-06-10T03:28:27;4.40;;;1.57;;
13672;SDS011;6909;52.202;9.876;2023-06-10T03:30:53;1.50;;;1.40;;
13672;SDS011;6909;52.202;9.876;2023-06-10T03:33:20;1.30;;;1.03;;
13672;SDS011;6909;52.202;9.876;2023-06-10T03:35:47;1.67;;;1.57;;
13672;SDS011;6909;52.202;9.876;2023-06-10T03:38:15;1.23;;;1.13;;
13672;SDS011;6909;52.202;9.876;2023-06-10T03:40:42;3.30;;;1.47;;
13672;SDS011;6909;52.202;9.876;2023-06-10T03:43:08;1.27;;;1.10;;
13672;SDS011;6909;52.202;9.876;2023-06-10T03:45:35;2.20;;;1.10;;
13672;SDS011;6909;52.202;9.876;2023-06-10T03:48:02;1.30;;;1.20;;
13672;SDS011;6909;52.202;9.876;2023-06-10T03:50:29;2.23;;;1.30;;
13672;SDS011;6909;52.202;9.876;2023-06-10T03:52:57;1.47;;;1.37;;
13672;SDS011;6909;52.202;9.876;2023-06-10T03:55:25;2.90;;;1.87;;
13672;SDS011;6909;52.202;9.876;2023-06-10T03:57:52;1.30;;;1.20;;
13672;SDS011;6909;52.202;9.876;2023-06-10T04:00:19;2.20;;;1.70;;
13672;SDS011;6909;52.202;9.876;2023-06-10T04:02:46;1.83;;;1.40;;
13672;SDS011;6909;52.202;9.876;2023-06-10T04:05:15;1.30;;;1.20;;
13672;SDS011;6909;52.202;9.876;2023-06-10T04:07:42;1.83;;;1.53;;
13672;SDS011;6909;52.202;9.876;2023-06-10T04:10:10;1.80;;;1.70;;
13672;SDS011;6909;52.202;9.876;2023-06-10T04:12:38;1.50;;;1.40;;
13672;SDS011;6909;52.202;9.876;2023-06-10T04:15:06;1.90;;;1.70;;
13672;SDS011;6909;52.202;9.876;2023-06-10T04:17:33;1.10;;;1.00;;
13672;SDS011;6909;52.202;9.876;2023-06-10T04:20:00;1.87;;;1.77;;
13672;SDS011;6909;52.202;9.876;2023-06-10T04:22:28;2.03;;;1.50;;
13672;SDS011;6909;52.202;9.876;2023-06-10T04:24:55;1.43;;;1.30;;
13672;SDS011;6909;52.202;9.876;2023-06-10T04:27:22;2.70;;;1.77;;
13672;SDS011;6909;52.202;9.876;2023-06-10T04:29:50;3.47;;;1.70;;
13672;SDS011;6909;52.202;9.876;2023-06-10T04:32:17;1.93;;;1.30;;
13672;SDS011;6909;52.202;9.876;2023-06-10T04:34:44;1.97;;;1.60;;
13672;SDS011;6909;52.202;9.876;2023-06-10T04:37:10;2.20;;;1.30;;
13672;SDS011;6909;52.202;9.876;2023-06-10T04:39:37;2.03;;;1.92;;
13672;SDS011;6909;52.202;9.876;2023-06-10T04:42:04;1.90;;;1.77;;
13672;SDS011;6909;52.202;9.876;2023-06-10T04:44:31;2.08;;;1.60;;
13672;SDS011;6909;52.202;9.876;2023-06-10T04:46:59;3.00;;;1.70;;
13672;SDS011;6909;52.202;9.876;2023-06-10T04:49:26;2.78;;;1.55;;
13672;SDS011;6909;52.202;9.876;2023-06-10T04:51:53;3.00;;;1.85;;
13672;SDS011;6909;52.202;9.876;2023-06-10T04:54:20;2.83;;;1.67;;
13672;SDS011;6909;52.202;9.876;2023-06-10T04:56:47;2.92;;;1.90;;
13672;SDS011;6909;52.202;9.876;2023-06-10T04:59:13;3.25;;;2.13;;
13672;SDS011;6909;52.202;9.876;2023-06-10T05:01:40;3.05;;;2.17;;
13672;SDS011;6909;52.202;9.876;2023-06-10T05:04:08;2.15;;;1.58;;
13672;SDS011;6909;52.202;9.876;2023-06-10T05:06:35;2.30;;;1.85;;
13672;SDS011;6909;52.202;9.876;2023-06-10T05:09:02;2.58;;;1.83;;
13672;SDS011;6909;52.202;9.876;2023-06-10T05:11:29;4.30;;;1.85;;
13672;SDS011;6909;52.202;9.876;2023-06-10T05:13:55;3.05;;;2.17;;
13672;SDS011;6909;52.202;9.876;2023-06-10T05:16:22;1.73;;;1.63;;
13672;SDS011;6909;52.202;9.876;2023-06-10T05:18:48;1.60;;;1.50;;
13672;SDS011;6909;52.202;9.876;2023-06-10T05:21:18;2.05;;;1.50;;
13672;SDS011;6909;52.202;9.876;2023-06-10T05:23:45;2.30;;;2.08;;
13672;SDS011;6909;52.202;9.876;2023-06-10T05:26:12;2.47;;;1.83;;
13672;SDS011;6909;52.202;9.876;2023-06-10T05:28:38;2.10;;;1.70;;
13672;SDS011;6909;52.202;9.876;2023-06-10T05:31:05;2.77;;;1.57;;
13672;SDS011;6909;52.202;9.876;2023-06-10T05:33:32;2.33;;;1.63;;
13672;SDS011;6909;52.202;9.876;2023-06-10T05:35:59;3.13;;;1.63;;
13672;SDS011;6909;52.202;9.876;2023-06-10T05:38:27;1.97;;;1.57;;
13672;SDS011;6909;52.202;9.876;2023-06-10T05:40:54;1.90;;;1.67;;
13672;SDS011;6909;52.202;9.876;2023-06-10T05:43:21;2.40;;;2.13;;
13672;SDS011;6909;52.202;9.876;2023-06-10T05:45:48;2.43;;;1.93;;
13672;SDS011;6909;52.202;9.876;2023-06-10T05:48:15;2.57;;;1.93;;
13672;SDS011;6909;52.202;9.876;2023-06-10T05:50:42;3.33;;;2.10;;
13672;SDS011;6909;52.202;9.876;2023-06-10T05:53:13;2.30;;;1.87;;
13672;SDS011;6909;52.202;9.876;2023-06-10T05:55:42;2.00;;;1.87;;
13672;SDS011;6909;52.202;9.876;2023-06-10T05:58:09;2.43;;;1.77;;
13672;SDS011;6909;52.202;9.876;2023-06-10T06:00:37;2.27;;;1.93;;
13672;SDS011;6909;52.202;9.876;2023-06-10T06:03:05;2.00;;;1.80;;
13672;SDS011;6909;52.202;9.876;2023-06-10T06:05:32;2.57;;;1.70;;
13672;SDS011;6909;52.202;9.876;2023-06-10T06:08:00;2.47;;;2.10;;
13672;SDS011;6909;52.202;9.876;2023-06-10T06:10:27;2.27;;;1.97;;
13672;SDS011;6909;52.202;9.876;2023-06-10T06:12:55;2.60;;;2.40;;
13672;SDS011;6909;52.202;9.876;2023-06-10T06:15:22;2.90;;;2.20;;
13672;SDS011;6909;52.202;9.876;2023-06-10T06:17:48;2.60;;;1.87;;
13672;SDS011;6909;52.202;9.876;2023-06-10T06:20:17;2.27;;;2.03;;
13672;SDS011;6909;52.202;9.876;2023-06-10T06:22:44;2.57;;;2.03;;
13672;SDS011;6909;52.202;9.876;2023-06-10T06:25:10;1.47;;;1.37;;
13672;SDS011;6909;52.202;9.876;2023-06-10T06:27:37;2.87;;;2.13;;
13672;SDS011;6909;52.202;9.876;2023-06-10T06:30:06;2.93;;;1.83;;
13672;SDS011;6909;52.202;9.876;2023-06-10T06:32:33;2.40;;;2.17;;
13672;SDS011;6909;52.202;9.876;2023-06-10T06:35:00;2.70;;;2.07;;
13672;SDS011;6909;52.202;9.876;2023-06-10T06:37:26;1.87;;;1.77;;
13672;SDS011;6909;52.202;9.876;2023-06-10T06:39:53;1.97;;;1.73;;
13672;SDS011;6909;52.202;9.876;2023-06-10T06:42:20;2.57;;;2.30;;
13672;SDS011;6909;52.202;9.876;2023-06-10T06:44:47;2.23;;;1.90;;
13672;SDS011;6909;52.202;9.876;2023-06-10T06:47:15;3.17;;;2.37;;
13672;SDS011;6909;52.202;9.876;2023-06-10T06:49:44;2.27;;;1.87;;
13672;SDS011;6909;52.202;9.876;2023-06-10T06:52:12;3.05;;;2.33;;
13672;SDS011;6909;52.202;9.876;2023-06-10T06:54:39;2.35;;;2.10;;
13672;SDS011;6909;52.202;9.876;2023-06-10T06:57:05;2.35;;;2.10;;
13672;SDS011;6909;52.202;9.876;2023-06-10T06:59:33;3.65;;;2.78;;
13672;SDS011;6909;52.202;9.876;2023-06-10T07:01:59;2.63;;;2.15;;
13672;SDS011;6909;52.202;9.876;2023-06-10T07:04:27;3.63;;;2.47;;
13672;SDS011;6909;52.202;9.876;2023-06-10T07:06:55;3.22;;;2.50;;
13672;SDS011;6909;52.202;9.876;2023-06-10T07:09:22;2.40;;;2.20;;
13672;SDS011;6909;52.202;9.876;2023-06-10T07:11:48;2.53;;;2.25;;
13672;SDS011;6909;52.202;9.876;2023-06-10T07:14:15;3.67;;;2.47;;
13672;SDS011;6909;52.202;9.876;2023-06-10T07:16:42;3.45;;;2.72;;
13672;SDS011;6909;52.202;9.876;2023-06-10T07:19:10;3.42;;;2.58;;
13672;SDS011;6909;52.202;9.876;2023-06-10T07:21:38;4.07;;;2.33;;
13672;SDS011;6909;52.202;9.876;2023-06-10T07:24:05;2.47;;;2.28;;
13672;SDS011;6909;52.202;9.876;2023-06-10T07:26:32;2.65;;;2.45;;
13672;SDS011;6909;52.202;9.876;2023-06-10T07:28:59;3.05;;;2.83;;
13672;SDS011;6909;52.202;9.876;2023-06-10T07:31:25;2.78;;;2.47;;
13672;SDS011;6909;52.202;9.876;2023-06-10T07:33:52;3.00;;;2.70;;
13672;SDS011;6909;52.202;9.876;2023-06-10T07:36:19;2.83;;;2.63;;
13672;SDS011;6909;52.202;9.876;2023-06-10T07:38:47;3.33;;;2.60;;
13672;SDS011;6909;52.202;9.876;2023-06-10T07:41:14;2.88;;;2.67;;
13672;SDS011;6909;52.202;9.876;2023-06-10T07:43:42;2.83;;;2.63;;
13672;SDS011;6909;52.202;9.876;2023-06-10T07:46:09;3.03;;;2.53;;
13672;SDS011;6909;52.202;9.876;2023-06-10T07:48:36;2.80;;;2.60;;
13672;SDS011;6909;52.202;9.876;2023-06-10T07:51:02;3.00;;;2.65;;
13672;SDS011;6909;52.202;9.876;2023-06-10T07:53:29;3.05;;;2.50;;
13672;SDS011;6909;52.202;9.876;2023-06-10T07:55:57;3.03;;;2.70;;
13672;SDS011;6909;52.202;9.876;2023-06-10T07:58:24;3.22;;;2.90;;
13672;SDS011;6909;52.202;9.876;2023-06-10T08:00:50;4.72;;;2.85;;
13672;SDS011;6909;52.202;9.876;2023-06-10T08:03:17;3.17;;;2.63;;
13672;SDS011;6909;52.202;9.876;2023-06-10T08:05:44;2.80;;;2.45;;
13672;SDS011;6909;52.202;9.876;2023-06-10T08:08:10;3.40;;;2.80;;
13672;SDS011;6909;52.202;9.876;2023-06-10T08:10:37;4.30;;;2.75;;
13672;SDS011;6909;52.202;9.876;2023-06-10T08:13:05;2.97;;;2.63;;
13672;SDS011;6909;52.202;9.876;2023-06-10T08:15:32;2.53;;;2.33;;
13672;SDS011;6909;52.202;9.876;2023-06-10T08:17:58;3.78;;;2.88;;
13672;SDS011;6909;52.202;9.876;2023-06-10T08:20:25;3.38;;;3.08;;
13672;SDS011;6909;52.202;9.876;2023-06-10T08:22:52;2.78;;;2.42;;
13672;SDS011;6909;52.202;9.876;2023-06-10T08:25:18;2.80;;;2.60;;
13672;SDS011;6909;52.202;9.876;2023-06-10T08:27:47;3.60;;;2.78;;
13672;SDS011;6909;52.202;9.876;2023-06-10T08:30:15;3.13;;;2.58;;
13672;SDS011;6909;52.202;9.876;2023-06-10T08:32:41;3.03;;;2.80;;
13672;SDS011;6909;52.202;9.876;2023-06-10T08:35:08;3.50;;;2.40;;
13672;SDS011;6909;52.202;9.876;2023-06-10T08:37:35;3.78;;;3.47;;
13672;SDS011;6909;52.202;9.876;2023-06-10T08:40:01;3.47;;;2.78;;
13672;SDS011;6909;52.202;9.876;2023-06-10T08:42:32;4.03;;;2.70;;
13672;SDS011;6909;52.202;9.876;2023-06-10T08:45:03;3.45;;;3.15;;
13672;SDS011;6909;52.202;9.876;2023-06-10T08:47:34;2.63;;;2.42;;
13672;SDS011;6909;52.202;9.876;2023-06-10T08:50:03;5.57;;;2.90;;
13672;SDS011;6909;52.202;9.876;2023-06-10T08:52:34;3.80;;;3.08;;
13672;SDS011;6909;52.202;9.876;2023-06-10T08:55:03;3.22;;;2.92;;
13672;SDS011;6909;52.202;9.876;2023-06-10T08:57:36;3.10;;;2.65;;
13672;SDS011;6909;52.202;9.876;2023-06-10T09:00:03;2.92;;;2.63;;
13672;SDS011;6909;52.202;9.876;2023-06-10T09:02:32;4.10;;;2.42;;
13672;SDS011;6909;52.202;9.876;2023-06-10T09:05:02;2.75;;;2.40;;
13672;SDS011;6909;52.202;9.876;2023-06-10T09:07:29;8.13;;;3.40;;
13672;SDS011;6909;52.202;9.876;2023-06-10T09:09:59;2.88;;;2.53;;
13672;SDS011;6909;52.202;9.876;2023-06-10T09:12:28;2.67;;;2.22;;
13672;SDS011;6909;52.202;9.876;2023-06-10T09:14:55;3.03;;;2.72;;
13672;SDS011;6909;52.202;9.876;2023-06-10T09:17:22;3.75;;;2.45;;
13672;SDS011;6909;52.202;9.876;2023-06-10T09:19:51;3.45;;;2.65;;
13672;SDS011;6909;52.202;9.876;2023-06-10T09:22:20;4.15;;;2.72;;
13672;SDS011;6909;52.202;9.876;2023-06-10T09:24:47;3.28;;;2.97;;
13672;SDS011;6909;52.202;9.876;2023-06-10T09:27:14;2.90;;;2.53;;
13672;SDS011;6909;52.202;9.876;2023-06-10T09:29:47;3.00;;;2.40;;
13672;SDS011;6909;52.202;9.876;2023-06-10T09:32:17;2.88;;;2.63;;
13672;SDS011;6909;52.202;9.876;2023-06-10T09:34:44;2.97;;;2.25;;
13672;SDS011;6909;52.202;9.876;2023-06-10T09:37:13;2.22;;;2.00;;
13672;SDS011;6909;52.202;9.876;2023-06-10T09:39:52;3.97;;;2.47;;
13672;SDS011;6909;52.202;9.876;2023-06-10T09:42:29;4.80;;;2.70;;
13672;SDS011;6909;52.202;9.876;2023-06-10T09:44:59;2.50;;;2.30;;
13672;SDS011;6909;52.202;9.876;2023-06-10T09:47:26;2.28;;;2.00;;
13672;SDS011;6909;52.202;9.876;2023-06-10T09:49:52;2.83;;;2.25;;
13672;SDS011;6909;52.202;9.876;2023-06-10T09:52:22;4.65;;;2.80;;
13672;SDS011;6909;52.202;9.876;2023-06-10T09:54:50;2.42;;;2.13;;
13672;SDS011;6909;52.202;9.876;2023-06-10T09:57:18;5.25;;;2.92;;
13672;SDS011;6909;52.202;9.876;2023-06-10T09:59:45;2.50;;;2.30;;
13672;SDS011;6909;52.202;9.876;2023-06-10T10:02:15;4.30;;;2.42;;
13672;SDS011;6909;52.202;9.876;2023-06-10T10:04:42;4.82;;;2.60;;
13672;SDS011;6909;52.202;9.876;2023-06-10T10:07:09;3.15;;;2.40;;
13672;SDS011;6909;52.202;9.876;2023-06-10T10:09:37;3.92;;;2.50;;
13672;SDS011;6909;52.202;9.876;2023-06-10T10:12:05;2.83;;;2.33;;
13672;SDS011;6909;52.202;9.876;2023-06-10T10:14:36;2.50;;;2.30;;
13672;SDS011;6909;52.202;9.876;2023-06-10T10:17:04;2.88;;;2.67;;
13672;SDS011;6909;52.202;9.876;2023-06-10T10:19:33;2.95;;;2.60;;
13672;SDS011;6909;52.202;9.876;2023-06-10T10:22:07;2.78;;;2.40;;
13672;SDS011;6909;52.202;9.876;2023-06-10T10:24:38;3.55;;;2.78;;
13672;SDS011;6909;52.202;9.876;2023-06-10T10:27:11;3.78;;;2.40;;
13672;SDS011;6909;52.202;9.876;2023-06-10T10:29:43;2.55;;;2.35;;
13672;SDS011;6909;52.202;9.876;2023-06-10T10:32:13;2.60;;;2.40;;
13672;SDS011;6909;52.202;9.876;2023-06-10T10:34:42;3.67;;;2.85;;
13672;SDS011;6909;52.202;9.876;2023-06-10T10:37:14;3.83;;;2.85;;
13672;SDS011;6909;52.202;9.876;2023-06-10T10:39:42;3.85;;;2.13;;
13672;SDS011;6909;52.202;9.876;2023-06-10T10:42:09;4.47;;;2.17;;
13672;SDS011;6909;52.202;9.876;2023-06-10T10:44:36;4.00;;;2.80;;
13672;SDS011;6909;52.202;9.876;2023-06-10T10:47:04;7.30;;;2.90;;
13672;SDS011;6909;52.202;9.876;2023-06-10T10:49:34;2.72;;;2.35;;
13672;SDS011;6909;52.202;9.876;2023-06-10T10:52:03;3.60;;;2.60;;
13672;SDS011;6909;52.202;9.876;2023-06-10T10:54:31;3.50;;;2.95;;
13672;SDS011;6909;52.202;9.876;2023-06-10T10:57:20;3.45;;;2.90;;
13672;SDS011;6909;52.202;9.876;2023-06-10T10:59:51;5.10;;;2.80;;
13672;SDS011;6909;52.202;9.876;2023-06-10T11:05:05;6.20;;;2.63;;
13672;SDS011;6909;52.202;9.876;2023-06-10T11:07:33;3.10;;;2.80;;
13672;SDS011;6909;52.202;9.876;2023-06-10T11:10:02;4.15;;;3.03;;
13672;SDS011;6909;52.202;9.876;2023-06-10T11:12:56;3.03;;;2.30;;
13672;SDS011;6909;52.202;9.876;2023-06-10T11:15:23;3.10;;;2.75;;
13672;SDS011;6909;52.202;9.876;2023-06-10T11:18:07;3.00;;;2.65;;
13672;SDS011;6909;52.202;9.876;2023-06-10T11:23:30;3.33;;;2.45;;
13672;SDS011;6909;52.202;9.876;2023-06-10T11:26:13;5.18;;;3.28;;
13672;SDS011;6909;52.202;9.876;2023-06-10T11:31:33;2.97;;;2.75;;
13672;SDS011;6909;52.202;9.876;2023-06-10T11:34:04;4.03;;;3.08;;
13672;SDS011;6909;52.202;9.876;2023-06-10T11:36:32;3.63;;;2.88;;
13672;SDS011;6909;52.202;9.876;2023-06-10T11:39:00;5.25;;;3.40;;
13672;SDS011;6909;52.202;9.876;2023-06-10T11:41:29;3.50;;;2.80;;
13672;SDS011;6909;52.202;9.876;2023-06-10T11:43:56;4.97;;;3.38;;
13672;SDS011;6909;52.202;9.876;2023-06-10T11:46:28;3.05;;;2.72;;
13672;SDS011;6909;52.202;9.876;2023-06-10T11:48:55;2.92;;;2.60;;
13672;SDS011;6909;52.202;9.876;2023-06-10T11:51:25;3.15;;;2.50;;
13672;SDS011;6909;52.202;9.876;2023-06-10T11:53:52;3.17;;;2.88;;
13672;SDS011;6909;52.202;9.876;2023-06-10T11:56:20;3.28;;;2.97;;
13672;SDS011;6909;52.202;9.876;2023-06-10T11:58:51;2.95;;;2.47;;
13672;SDS011;6909;52.202;9.876;2023-06-10T12:01:21;4.15;;;2.80;;
13672;SDS011;6909;52.202;9.876;2023-06-10T12:03:57;2.70;;;2.50;;
13672;SDS011;6909;52.202;9.876;2023-06-10T12:06:24;3.97;;;3.17;;
13672;SDS011;6909;52.202;9.876;2023-06-10T12:08:51;4.20;;;2.90;;
13672;SDS011;6909;52.202;9.876;2023-06-10T12:11:19;3.33;;;3.03;;
13672;SDS011;6909;52.202;9.876;2023-06-10T12:13:46;3.25;;;2.85;;
13672;SDS011;6909;52.202;9.876;2023-06-10T12:16:14;3.15;;;2.85;;
13672;SDS011;6909;52.202;9.876;2023-06-10T12:18:42;3.17;;;2.67;;
13672;SDS011;6909;52.202;9.876;2023-06-10T12:21:18;3.13;;;2.83;;
13672;SDS011;6909;52.202;9.876;2023-06-10T12:24:05;2.97;;;2.60;;
13672;SDS011;6909;52.202;9.876;2023-06-10T12:26:34;3.00;;;2.70;;
13672;SDS011;6909;52.202;9.876;2023-06-10T12:29:18;2.90;;;2.60;;
13672;SDS011;6909;52.202;9.876;2023-06-10T12:31:54;3.10;;;2.90;;
13672;SDS011;6909;52.202;9.876;2023-06-10T12:34:29;3.08;;;2.88;;
13672;SDS011;6909;52.202;9.876;2023-06-10T12:36:58;5.95;;;3.03;;
13672;SDS011;6909;52.202;9.876;2023-06-10T12:39:25;3.13;;;2.83;;
13672;SDS011;6909;52.202;9.876;2023-06-10T12:41:52;5.22;;;3.53;;
13672;SDS011;6909;52.202;9.876;2023-06-10T12:44:28;3.58;;;3.28;;
13672;SDS011;6909;52.202;9.876;2023-06-10T12:46:58;2.90;;;2.50;;
13672;SDS011;6909;52.202;9.876;2023-06-10T12:49:25;3.35;;;3.05;;
13672;SDS011;6909;52.202;9.876;2023-06-10T12:51:52;3.47;;;3.17;;
13672;SDS011;6909;52.202;9.876;2023-06-10T12:54:21;4.68;;;3.72;;
13672;SDS011;6909;52.202;9.876;2023-06-10T12:56:48;3.42;;;3.13;;
13672;SDS011;6909;52.202;9.876;2023-06-10T12:59:14;2.90;;;2.63;;
13672;SDS011;6909;52.202;9.876;2023-06-10T13:01:41;3.00;;;2.70;;
13672;SDS011;6909;52.202;9.876;2023-06-10T13:04:08;3.63;;;2.90;;
13672;SDS011;6909;52.202;9.876;2023-06-10T13:06:34;3.45;;;3.15;;
13672;SDS011;6909;52.202;9.876;2023-06-10T13:09:03;3.03;;;2.83;;
13672;SDS011;6909;52.202;9.876;2023-06-10T13:11:33;3.78;;;3.08;;
13672;SDS011;6909;52.202;9.876;2023-06-10T13:14:00;5.00;;;3.35;;
13672;SDS011;6909;52.202;9.876;2023-06-10T13:16:27;3.03;;;2.70;;
13672;SDS011;6909;52.202;9.876;2023-06-10T13:18:54;3.83;;;3.47;;
13672;SDS011;6909;52.202;9.876;2023-06-10T13:21:21;3.45;;;3.15;;
13672;SDS011;6909;52.202;9.876;2023-06-10T13:23:48;3.63;;;3.33;;
13672;SDS011;6909;52.202;9.876;2023-06-10T13:26:15;3.38;;;3.08;;
13672;SDS011;6909;52.202;9.876;2023-06-10T13:28:43;3.53;;;3.10;;
13672;SDS011;6909;52.202;9.876;2023-06-10T13:31:10;3.67;;;3.38;;
13672;SDS011;6909;52.202;9.876;2023-06-10T13:33:37;3.28;;;2.97;;
13672;SDS011;6909;52.202;9.876;2023-06-10T13:36:04;3.33;;;3.03;;
13672;SDS011;6909;52.202;9.876;2023-06-10T13:38:31;3.63;;;3.13;;
13672;SDS011;6909;52.202;9.876;2023-06-10T13:40:58;3.10;;;2.90;;
13672;SDS011;6909;52.202;9.876;2023-06-10T13:43:24;3.60;;;3.30;;
13672;SDS011;6909;52.202;9.876;2023-06-10T13:45:52;3.25;;;2.97;;
13672;SDS011;6909;52.202;9.876;2023-06-10T13:48:19;3.05;;;2.85;;
13672;SDS011;6909;52.202;9.876;2023-06-10T13:50:46;3.50;;;3.20;;
13672;SDS011;6909;52.202;9.876;2023-06-10T13:53:13;3.08;;;2.65;;
13672;SDS011;6909;52.202;9.876;2023-06-10T13:55:39;3.08;;;2.80;;
13672;SDS011;6909;52.202;9.876;2023-06-10T13:58:06;3.35;;;3.05;;
13672;SDS011;6909;52.202;9.876;2023-06-10T14:00:33;3.30;;;3.00;;
13672;SDS011;6909;52.202;9.876;2023-06-10T14:03:01;3.85;;;3.08;;
13672;SDS011;6909;52.202;9.876;2023-06-10T14:05:28;3.72;;;3.25;;
13672;SDS011;6909;52.202;9.876;2023-06-10T14:07:54;3.40;;;3.10;;
13672;SDS011;6909;52.202;9.876;2023-06-10T14:10:21;3.15;;;2.90;;
13672;SDS011;6909;52.202;9.876;2023-06-10T14:12:48;4.03;;;3.40;;
13672;SDS011;6909;52.202;9.876;2023-06-10T14:15:15;3.35;;;3.10;;
13672;SDS011;6909;52.202;9.876;2023-06-10T14:17:41;3.20;;;2.90;;
13672;SDS011;6909;52.202;9.876;2023-06-10T14:20:10;3.50;;;3.15;;
13672;SDS011;6909;52.202;9.876;2023-06-10T14:22:37;4.22;;;3.00;;
13672;SDS011;6909;52.202;9.876;2023-06-10T14:25:05;3.63;;;3.13;;
13672;SDS011;6909;52.202;9.876;2023-06-10T14:27:32;3.40;;;3.20;;
13672;SDS011;6909;52.202;9.876;2023-06-10T14:29:59;4.63;;;3.08;;
13672;SDS011;6909;52.202;9.876;2023-06-10T14:32:25;3.22;;;3.00;;
13672;SDS011;6909;52.202;9.876;2023-06-10T14:34:52;3.35;;;3.05;;
13672;SDS011;6909;52.202;9.876;2023-06-10T14:37:20;3.60;;;3.20;;
13672;SDS011;6909;52.202;9.876;2023-06-10T14:39:47;3.30;;;3.00;;
13672;SDS011;6909;52.202;9.876;2023-06-10T14:42:13;3.38;;;2.97;;
13672;SDS011;6909;52.202;9.876;2023-06-10T14:44:40;3.90;;;3.35;;
13672;SDS011;6909;52.202;9.876;2023-06-10T14:47:07;3.42;;;3.15;;
13672;SDS011;6909;52.202;9.876;2023-06-10T14:49:33;3.15;;;2.95;;
13672;SDS011;6909;52.202;9.876;2023-06-10T14:52:00;3.75;;;3.45;;
13672;SDS011;6909;52.202;9.876;2023-06-10T14:54:28;3.72;;;3.42;;
13672;SDS011;6909;52.202;9.876;2023-06-10T14:56:55;3.47;;;3.00;;
13672;SDS011;6909;52.202;9.876;2023-06-10T14:59:21;6.25;;;3.10;;
13672;SDS011;6909;52.202;9.876;2023-06-10T15:01:48;3.33;;;2.80;;
13672;SDS011;6909;52.202;9.876;2023-06-10T15:04:15;3.88;;;2.80;;
13672;SDS011;6909;52.202;9.876;2023-06-10T15:06:41;3.33;;;3.03;;
13672;SDS011;6909;52.202;9.876;2023-06-10T15:09:08;4.80;;;3.50;;
13672;SDS011;6909;52.202;9.876;2023-06-10T15:11:36;3.55;;;3.25;;
13672;SDS011;6909;52.202;9.876;2023-06-10T15:14:03;3.85;;;3.00;;